Time;durP1;ratioP1;P1;durP2;ratioP2;P2;SDS_P1;SDS_P2;PMS_P1;PMS_P2;Temp;Humidity;BMP_temperature;BMP_pressure;BME280_temperature;BME280_humidity;BME280_pressure;Samples;Min_cycle;Max_cycle;Signal;HPM_P1;HPM_P2
2022/02/18 00:00:46;;;;;;;6.07;0.90;;;;;;;-141.50;100.00;63355.56;4922538;29;20059;-77
2022/02/18 00:03:14;;;;;;;7.38;1.15;;;;;;;-141.50;100.00;63355.56;4914509;29;20056;-79
2022/02/18 00:05:43;;;;;;;5.75;1.13;;;;;;;-141.50;100.00;63355.56;4915242;29;20056;-78
2022/02/18 00:08:10;;;;;;;4.68;0.90;;;;;;;-141.50;100.00;63355.56;4913196;29;20485;-78
2022/02/18 00:10:38;;;;;;;7.93;1.30;;;;;;;-141.50;100.00;63355.56;4912747;29;20056;-78
2022/02/18 00:13:05;;;;;;;7.05;1.30;;;;;;;-141.50;100.00;63355.56;4913604;29;20073;-78
2022/02/18 00:15:32;;;;;;;8.75;1.17;;;;;;;-141.50;100.00;63355.56;4913943;29;20062;-78
2022/02/18 00:18:01;;;;;;;10.75;1.25;;;;;;;-141.50;100.00;63355.56;4916291;29;20066;-79
2022/02/18 00:20:29;;;;;;;8.85;1.10;;;;;;;-141.50;100.00;63355.56;4914508;29;20181;-79
2022/02/18 00:22:56;;;;;;;7.85;1.10;;;;;;;-141.50;100.00;63355.56;4915434;29;20056;-78
2022/02/18 00:25:23;;;;;;;6.10;0.70;;;;;;;-141.50;100.00;63355.56;4914671;29;20048;-77
2022/02/18 00:27:50;;;;;;;5.50;1.30;;;;;;;-141.50;100.00;63355.56;4913222;29;20052;-79
2022/02/18 00:30:16;;;;;;;11.48;1.17;;;;;;;-141.50;100.00;63355.56;4914094;29;20056;-77
2022/02/18 00:32:43;;;;;;;7.25;1.40;;;;;;;-141.50;100.00;63355.56;4913718;29;20064;-76
2022/02/18 00:35:10;;;;;;;9.65;1.17;;;;;;;-141.50;100.00;63355.56;4913528;29;20056;-79
2022/02/18 00:37:37;;;;;;;5.38;1.10;;;;;;;-141.50;100.00;63355.56;4914562;29;20040;-79
2022/02/18 00:40:04;;;;;;;5.20;1.00;;;;;;;-141.50;100.00;63355.56;4914539;29;20052;-76
2022/02/18 00:42:31;;;;;;;5.47;0.90;;;;;;;-141.50;100.00;63355.56;4912745;29;20060;-77
2022/02/18 00:44:57;;;;;;;7.85;1.10;;;;;;;-141.50;100.00;63355.56;4912603;29;20058;-78
2022/02/18 00:47:24;;;;;;;6.18;1.10;;;;;;;-141.50;100.00;63355.56;4913540;29;20492;-80
2022/02/18 00:49:51;;;;;;;7.53;1.00;;;;;;;-141.50;100.00;63355.56;4913089;29;20048;-79
2022/02/18 00:52:17;;;;;;;8.90;1.27;;;;;;;-141.50;100.00;63355.56;4915412;29;20077;-79
2022/02/18 00:54:44;;;;;;;9.57;1.27;;;;;;;-141.50;100.00;63355.56;4913871;29;20060;-78
2022/02/18 00:57:11;;;;;;;7.00;1.00;;;;;;;-141.50;100.00;63355.56;4915044;29;20071;-78
2022/02/18 00:59:37;;;;;;;5.63;1.20;;;;;;;-141.50;100.00;63355.56;4913413;29;20048;-78
2022/02/18 01:02:04;;;;;;;8.95;1.02;;;;;;;-141.50;100.00;63355.56;4912568;29;20055;-78
2022/02/18 01:04:31;;;;;;;8.65;0.90;;;;;;;-141.50;100.00;63355.56;4914164;29;20056;-78
2022/02/18 01:06:58;;;;;;;8.43;1.00;;;;;;;-141.50;100.00;63355.56;4913281;29;20052;-78
2022/02/18 01:09:25;;;;;;;4.70;1.10;;;;;;;-141.50;100.00;63355.56;4913889;29;20044;-78
2022/02/18 01:11:52;;;;;;;5.25;1.33;;;;;;;-141.50;100.00;63355.56;4914364;29;20058;-78
2022/02/18 01:14:18;;;;;;;4.35;1.02;;;;;;;-141.50;100.00;63355.56;4919023;29;20059;-78
2022/02/18 01:16:45;;;;;;;5.82;0.70;;;;;;;-141.50;100.00;63355.56;4920575;29;20052;-77
2022/02/18 01:19:13;;;;;;;7.65;0.90;;;;;;;-141.50;100.00;63355.56;4922323;29;20058;-77
2022/02/18 01:21:39;;;;;;;5.68;0.82;;;;;;;-141.50;100.00;63355.56;4917800;29;20076;-77
2022/02/18 01:24:06;;;;;;;6.50;0.98;;;;;;;-141.50;100.00;63355.56;4917674;29;20064;-78
2022/02/18 01:26:34;;;;;;;4.15;0.95;;;;;;;-141.50;100.00;63355.56;4920888;29;20207;-78
2022/02/18 01:29:02;;;;;;;7.45;1.10;;;;;;;-141.50;100.00;63355.56;4924477;29;20052;-79
2022/02/18 01:31:29;;;;;;;3.75;0.90;;;;;;;-141.50;100.00;63355.56;4925602;29;20048;-78
2022/02/18 01:33:57;;;;;;;9.75;1.20;;;;;;;-141.50;100.00;63355.56;4920655;29;20118;-77
2022/02/18 01:36:25;;;;;;;7.15;1.20;;;;;;;-141.50;100.00;63355.56;4913763;29;20060;-77
2022/02/18 01:38:52;;;;;;;6.18;1.10;;;;;;;-141.50;100.00;63355.56;4912937;29;20052;-78
2022/02/18 01:41:19;;;;;;;7.65;1.17;;;;;;;-141.50;100.00;63355.56;4911123;29;20056;-78
2022/02/18 01:43:57;;;;;;;9.88;1.50;;;;;;;-141.50;100.00;63355.56;4912916;29;20063;-77
2022/02/18 01:46:24;;;;;;;8.43;1.63;;;;;;;-141.50;100.00;63355.56;4911912;29;20052;-77
2022/02/18 01:48:52;;;;;;;8.63;1.50;;;;;;;-141.50;100.00;63355.56;4912233;29;20052;-77
2022/02/18 01:51:21;;;;;;;6.30;1.30;;;;;;;-141.50;100.00;63355.56;4911197;29;20519;-77
2022/02/18 01:53:49;;;;;;;5.30;1.10;;;;;;;-141.50;100.00;63355.56;4913966;29;20063;-78
2022/02/18 01:56:17;;;;;;;3.28;0.90;;;;;;;-141.50;100.00;63355.56;4913496;29;20119;-78
2022/02/18 01:58:44;;;;;;;11.27;1.13;;;;;;;-141.50;100.00;63355.56;4916126;29;20513;-77
2022/02/18 02:01:11;;;;;;;7.18;0.93;;;;;;;-141.50;100.00;63355.56;4913774;29;20390;-78
2022/02/18 02:03:38;;;;;;;5.88;1.10;;;;;;;-141.50;100.00;63355.56;4915282;29;20472;-78
2022/02/18 02:06:06;;;;;;;8.75;1.20;;;;;;;-141.50;100.00;63355.56;4916583;29;20059;-77
2022/02/18 02:08:35;;;;;;;7.70;1.23;;;;;;;-141.50;100.00;63355.56;4915390;29;20056;-78
2022/02/18 02:11:03;;;;;;;9.68;1.10;;;;;;;-141.50;100.00;63355.56;4912234;29;20040;-77
2022/02/18 02:13:35;;;;;;;7.63;1.17;;;;;;;-141.50;100.00;63355.56;4915959;29;20392;-78
2022/02/18 02:16:02;;;;;;;9.13;1.10;;;;;;;-141.50;100.00;63355.56;4915867;29;20052;-77
2022/02/18 02:18:29;;;;;;;8.02;1.23;;;;;;;-141.50;100.00;63355.56;4913677;29;20134;-77
2022/02/18 02:20:56;;;;;;;6.78;1.10;;;;;;;-141.50;100.00;63355.56;4914601;29;20044;-78
2022/02/18 02:23:23;;;;;;;9.77;1.25;;;;;;;-141.50;100.00;63355.56;4916483;29;20048;-79
2022/02/18 02:25:50;;;;;;;7.30;1.23;;;;;;;-141.50;100.00;63355.56;4914750;29;20178;-78
2022/02/18 02:28:17;;;;;;;7.43;1.27;;;;;;;-141.50;100.00;63355.56;4912530;29;20075;-77
2022/02/18 02:30:44;;;;;;;8.75;1.40;;;;;;;-141.50;100.00;63355.56;4914664;29;20047;-79
2022/02/18 02:33:12;;;;;;;6.68;1.23;;;;;;;-141.50;100.00;63355.56;4911657;29;20052;-77
2022/02/18 02:35:40;;;;;;;9.82;1.45;;;;;;;-141.50;100.00;63355.56;4910841;29;20060;-77
2022/02/18 02:38:08;;;;;;;10.55;1.35;;;;;;;-141.50;100.00;63355.56;4913016;29;20060;-78
2022/02/18 02:40:35;;;;;;;6.70;1.13;;;;;;;-141.50;100.00;63355.56;4916121;29;20470;-78
2022/02/18 02:43:02;;;;;;;13.52;1.58;;;;;;;-141.50;100.00;63355.56;4916528;29;20120;-79
2022/02/18 02:45:28;;;;;;;9.30;1.20;;;;;;;-141.50;100.00;63355.56;4912265;29;20048;-77
2022/02/18 02:47:55;;;;;;;11.00;1.33;;;;;;;-141.50;100.00;63355.56;4912603;29;20489;-79
2022/02/18 02:50:22;;;;;;;9.40;1.63;;;;;;;-141.50;100.00;63355.56;4910224;29;20069;-77
2022/02/18 02:52:49;;;;;;;5.22;1.25;;;;;;;-141.50;100.00;63355.56;4911792;29;20056;-79
2022/02/18 02:55:16;;;;;;;11.48;1.40;;;;;;;-141.50;100.00;63355.56;4910982;29;20071;-77
2022/02/18 02:57:43;;;;;;;8.50;1.40;;;;;;;-141.50;100.00;63355.56;4912003;29;20048;-78
2022/02/18 03:00:11;;;;;;;12.43;1.30;;;;;;;-141.50;100.00;63355.56;4912280;29;20080;-78
2022/02/18 03:02:39;;;;;;;9.95;1.45;;;;;;;-141.50;100.00;63355.56;4913239;29;20059;-78
2022/02/18 03:05:06;;;;;;;8.25;1.30;;;;;;;-141.50;100.00;63355.56;4911480;29;20273;-77
2022/02/18 03:07:33;;;;;;;11.20;1.58;;;;;;;-141.50;100.00;63355.56;4909838;29;20071;-77
2022/02/18 03:10:01;;;;;;;13.60;1.38;;;;;;;-141.50;100.00;63355.56;4909265;29;20063;-77
2022/02/18 03:12:30;;;;;;;16.30;1.60;;;;;;;-141.50;100.00;63355.56;4911274;29;20040;-77
2022/02/18 03:14:57;;;;;;;12.88;1.70;;;;;;;-141.50;100.00;63355.56;4911499;29;20052;-77
2022/02/18 03:17:25;;;;;;;14.35;1.80;;;;;;;-141.50;100.00;63355.56;4908603;29;20150;-77
2022/02/18 03:19:53;;;;;;;8.73;1.42;;;;;;;-141.50;100.00;63355.56;4911875;29;20115;-77
2022/02/18 03:22:19;;;;;;;9.98;1.48;;;;;;;-141.50;100.00;63355.56;4910715;29;20439;-78
2022/02/18 03:24:46;;;;;;;5.35;1.48;;;;;;;-141.50;100.00;63355.56;4916069;29;20040;-78
2022/02/18 03:27:13;;;;;;;14.95;2.13;;;;;;;-141.50;100.00;63355.56;4931075;29;20044;-78
2022/02/18 03:29:39;;;;;;;6.63;1.48;;;;;;;-141.50;100.00;63355.56;4937813;29;20337;-78
2022/02/18 03:32:07;;;;;;;13.52;1.63;;;;;;;-141.50;100.00;63355.56;4947566;29;20567;-78
2022/02/18 03:34:34;;;;;;;13.02;1.70;;;;;;;-141.50;100.00;63355.56;4945545;29;20051;-77
2022/02/18 03:37:01;;;;;;;9.52;1.30;;;;;;;-141.50;100.00;63355.56;4933395;29;20059;-80
2022/02/18 03:39:28;;;;;;;6.63;1.30;;;;;;;-141.50;100.00;63355.56;4934226;29;20082;-78
2022/02/18 03:41:55;;;;;;;9.63;1.50;;;;;;;-141.50;100.00;63355.56;4933585;29;20492;-77
2022/02/18 03:44:22;;;;;;;5.47;1.30;;;;;;;-141.50;100.00;63355.56;4935148;29;20075;-78
2022/02/18 03:46:48;;;;;;;8.57;1.40;;;;;;;-141.50;100.00;63355.56;4933544;29;20170;-78
2022/02/18 03:49:15;;;;;;;11.05;1.55;;;;;;;-141.50;100.00;63355.56;4936080;29;20054;-79
2022/02/18 03:51:42;;;;;;;7.07;1.33;;;;;;;-141.50;100.00;63355.56;4935220;29;20055;-79
2022/02/18 03:54:08;;;;;;;9.45;1.48;;;;;;;-141.50;100.00;63355.56;4936027;29;20115;-79
2022/02/18 03:56:35;;;;;;;10.43;1.33;;;;;;;-141.50;100.00;63355.56;4934151;29;20054;-77
2022/02/18 03:59:02;;;;;;;7.80;1.23;;;;;;;-141.50;100.00;63355.56;4916888;29;20125;-78
2022/02/18 04:01:29;;;;;;;9.43;1.45;;;;;;;-141.50;100.00;63355.56;4911824;29;20063;-78
2022/02/18 04:03:56;;;;;;;10.23;1.20;;;;;;;-141.50;100.00;63355.56;4913982;29;20416;-78
2022/02/18 04:06:22;;;;;;;9.60;1.30;;;;;;;-141.50;100.00;63355.56;4914187;29;20491;-78
2022/02/18 04:08:49;;;;;;;11.93;1.65;;;;;;;-141.50;100.00;63355.56;4913895;29;20052;-79
2022/02/18 04:11:16;;;;;;;12.02;1.50;;;;;;;-141.50;100.00;63355.56;4912798;29;20453;-77
2022/02/18 04:13:42;;;;;;;12.55;1.80;;;;;;;-141.50;100.00;63355.56;4914820;29;20056;-77
2022/02/18 04:16:09;;;;;;;11.32;1.88;;;;;;;-141.50;100.00;63355.56;4913493;29;20052;-78
2022/02/18 04:18:36;;;;;;;13.90;1.60;;;;;;;-141.50;100.00;63355.56;4915328;29;20114;-78
2022/02/18 04:21:02;;;;;;;12.13;1.60;;;;;;;-141.50;100.00;63355.56;4914067;29;20048;-78
2022/02/18 04:23:29;;;;;;;9.70;1.38;;;;;;;-141.50;100.00;63355.56;4913681;29;20047;-78
2022/02/18 04:25:56;;;;;;;12.10;1.73;;;;;;;-141.50;100.00;63355.56;4913471;29;20048;-78
2022/02/18 04:28:24;;;;;;;7.70;1.40;;;;;;;-141.50;100.00;63355.56;4915359;29;20063;-79
2022/02/18 04:30:50;;;;;;;15.43;1.52;;;;;;;-141.50;100.00;63355.56;4911781;29;20520;-76
2022/02/18 04:33:17;;;;;;;10.80;1.45;;;;;;;-141.50;100.00;63355.56;4913795;29;20091;-78
2022/02/18 04:35:44;;;;;;;9.70;1.40;;;;;;;-141.50;100.00;63355.56;4914156;29;20529;-78
2022/02/18 04:38:11;;;;;;;10.85;1.40;;;;;;;-141.50;100.00;63355.56;4914888;29;20067;-78
2022/02/18 04:40:38;;;;;;;11.27;1.48;;;;;;;-141.50;100.00;63355.56;4913436;29;20095;-78
2022/02/18 04:43:04;;;;;;;9.73;1.17;;;;;;;-141.50;100.00;63355.56;4914964;29;20048;-77
2022/02/18 04:45:31;;;;;;;9.32;1.83;;;;;;;-141.50;100.00;63355.56;4915107;29;20180;-79
2022/02/18 04:47:58;;;;;;;9.23;1.65;;;;;;;-141.50;100.00;63355.56;4912981;29;20169;-76
2022/02/18 04:50:25;;;;;;;8.18;1.27;;;;;;;-141.50;100.00;63355.56;4912772;29;20489;-79
2022/02/18 04:52:52;;;;;;;11.02;1.60;;;;;;;-141.50;100.00;63355.56;4915848;29;20060;-78
2022/02/18 04:55:18;;;;;;;10.07;1.20;;;;;;;-141.50;100.00;63355.56;4916618;29;20250;-78
2022/02/18 04:57:49;;;;;;;12.98;1.90;;;;;;;-141.50;100.00;63355.56;4916749;29;20060;-79
2022/02/18 05:00:17;;;;;;;10.55;1.83;;;;;;;-141.50;100.00;63355.56;4915997;29;20142;-79
2022/02/18 05:02:45;;;;;;;7.13;1.30;;;;;;;-141.50;100.00;63355.56;4914330;29;20095;-78
2022/02/18 05:05:12;;;;;;;9.13;1.55;;;;;;;-141.50;100.00;63355.56;4913066;29;20048;-77
2022/02/18 05:07:39;;;;;;;12.52;1.70;;;;;;;-141.50;100.00;63355.56;4915001;29;20064;-80
2022/02/18 05:10:07;;;;;;;10.98;1.40;;;;;;;-141.50;100.00;63355.56;4915214;29;20047;-80
2022/02/18 05:12:34;;;;;;;9.07;1.40;;;;;;;-141.50;100.00;63355.56;4916615;29;20063;-79
2022/02/18 05:15:01;;;;;;;8.23;1.60;;;;;;;-141.50;100.00;63355.56;4917661;29;20485;-80
2022/02/18 05:17:28;;;;;;;7.13;1.40;;;;;;;-141.50;100.00;63355.56;4920689;29;20526;-79
2022/02/18 05:19:54;;;;;;;7.65;1.40;;;;;;;-141.50;100.00;63355.56;4913563;29;20063;-79
2022/02/18 05:22:21;;;;;;;10.98;1.65;;;;;;;-141.50;100.00;63355.56;4914243;29;20727;-77
2022/02/18 05:24:48;;;;;;;11.02;1.67;;;;;;;-141.50;100.00;63355.56;4913080;29;20063;-78
2022/02/18 05:27:15;;;;;;;14.90;1.75;;;;;;;-141.50;100.00;63355.56;4910739;29;20082;-77
2022/02/18 05:29:41;;;;;;;10.70;1.70;;;;;;;-141.50;100.00;63355.56;4911485;29;20342;-77
2022/02/18 05:32:08;;;;;;;11.32;2.53;;;;;;;-141.50;100.00;63355.56;4914097;29;20501;-77
2022/02/18 05:34:36;;;;;;;10.82;1.70;;;;;;;-141.50;100.00;63355.56;4917626;29;20067;-77
2022/02/18 05:37:03;;;;;;;10.38;1.40;;;;;;;-141.50;100.00;63355.56;4912610;29;20501;-78
2022/02/18 05:39:30;;;;;;;13.18;1.50;;;;;;;-141.50;100.00;63355.56;4913644;29;20064;-76
2022/02/18 05:41:56;;;;;;;10.75;1.45;;;;;;;-141.50;100.00;63355.56;4911996;29;20098;-77
2022/02/18 05:44:30;;;;;;;8.20;1.52;;;;;;;-141.50;100.00;63355.56;4911454;29;20058;-76
2022/02/18 05:47:02;;;;;;;11.38;1.70;;;;;;;-141.50;100.00;63355.56;4911035;29;20422;-77
2022/02/18 05:49:29;;;;;;;14.35;2.05;;;;;;;-141.50;100.00;63355.56;4912197;29;20513;-77
2022/02/18 05:51:56;;;;;;;13.60;1.90;;;;;;;-141.50;100.00;63355.56;4902788;29;20056;-79
2022/02/18 05:54:23;;;;;;;12.52;1.90;;;;;;;-141.50;100.00;63355.56;4911345;29;20040;-76
2022/02/18 05:56:51;;;;;;;13.88;2.20;;;;;;;-141.50;100.00;63355.56;4909545;29;20068;-74
2022/02/18 05:59:19;;;;;;;12.60;1.95;;;;;;;-141.50;100.00;63355.56;4909192;29;20590;-76
2022/02/18 06:01:47;;;;;;;10.93;1.50;;;;;;;-141.50;100.00;63355.56;4911057;29;20048;-77
2022/02/18 06:04:14;;;;;;;9.98;1.77;;;;;;;-141.50;100.00;63355.56;4910491;29;20056;-77
2022/02/18 06:06:43;;;;;;;13.45;1.50;;;;;;;-141.50;100.00;63355.56;4911640;29;20056;-77
2022/02/18 06:09:11;;;;;;;13.18;2.00;;;;;;;-141.50;100.00;63355.56;4908533;29;20353;-77
2022/02/18 06:11:38;;;;;;;14.18;1.95;;;;;;;-141.50;100.00;63355.56;4909097;29;20055;-78
2022/02/18 06:14:05;;;;;;;14.77;1.70;;;;;;;-141.50;100.00;63355.56;4901811;29;20090;-76
2022/02/18 06:16:32;;;;;;;17.77;1.88;;;;;;;-141.50;100.00;63355.56;4905724;29;20524;-77
2022/02/18 06:18:59;;;;;;;14.90;2.15;;;;;;;-141.50;100.00;63355.56;4897115;29;20063;-76
2022/02/18 06:21:26;;;;;;;10.45;1.83;;;;;;;-141.50;100.00;63355.56;4904741;29;20067;-77
2022/02/18 06:23:52;;;;;;;18.58;1.83;;;;;;;-141.50;100.00;63355.56;4905697;29;20056;-76
2022/02/18 06:26:19;;;;;;;19.65;2.13;;;;;;;-141.50;100.00;63355.56;4908591;29;20056;-77
2022/02/18 06:28:46;;;;;;;14.88;2.05;;;;;;;-141.50;100.00;63355.56;4905315;29;20071;-77
2022/02/18 06:31:12;;;;;;;13.18;2.00;;;;;;;-141.50;100.00;63355.56;4902177;29;20048;-77
2022/02/18 06:33:40;;;;;;;17.33;2.28;;;;;;;-141.50;100.00;63355.56;4907499;29;20139;-78
2022/02/18 06:36:07;;;;;;;22.95;2.20;;;;;;;-141.50;100.00;63355.56;4907227;29;20095;-78
2022/02/18 06:38:33;;;;;;;15.30;2.20;;;;;;;-141.50;100.00;63355.56;4906141;29;20052;-77
2022/02/18 06:41:00;;;;;;;14.02;2.00;;;;;;;-141.50;100.00;63355.56;4905679;29;20076;-77
2022/02/18 06:43:27;;;;;;;14.70;2.28;;;;;;;-141.50;100.00;63355.56;4908876;29;20456;-77
2022/02/18 06:45:54;;;;;;;21.58;2.72;;;;;;;-141.50;100.00;63355.56;4907695;29;20055;-76
2022/02/18 06:48:21;;;;;;;14.30;2.67;;;;;;;-141.50;100.00;63355.56;4908613;29;20452;-77
2022/02/18 06:50:48;;;;;;;12.35;1.65;;;;;;;-141.50;100.00;63355.56;4903992;29;20454;-76
2022/02/18 06:53:15;;;;;;;14.32;2.00;;;;;;;-141.50;100.00;63355.56;4908328;29;20070;-77
2022/02/18 06:55:42;;;;;;;11.98;1.95;;;;;;;-141.50;100.00;63355.56;4907913;29;20063;-76
2022/02/18 06:58:09;;;;;;;15.93;2.88;;;;;;;-141.50;100.00;63355.56;4912412;29;20056;-78
2022/02/18 07:00:36;;;;;;;15.07;2.25;;;;;;;-141.50;100.00;63355.56;4916918;29;20055;-78
2022/02/18 07:03:04;;;;;;;15.80;2.90;;;;;;;-141.50;100.00;63355.56;4919583;29;20058;-78
2022/02/18 07:05:31;;;;;;;21.70;2.47;;;;;;;-141.50;100.00;63355.56;4913936;29;20059;-76
2022/02/18 07:07:57;;;;;;;15.90;2.50;;;;;;;-141.50;100.00;63355.56;4907092;29;20052;-77
2022/02/18 07:10:24;;;;;;;15.38;2.53;;;;;;;-141.50;100.00;63355.56;4915020;29;20060;-76
2022/02/18 07:12:50;;;;;;;13.68;1.98;;;;;;;-141.50;100.00;63355.56;4919408;29;20056;-78
2022/02/18 07:15:17;;;;;;;20.15;2.60;;;;;;;-141.50;100.00;63355.56;4920969;29;20075;-78
2022/02/18 07:17:45;;;;;;;13.85;2.33;;;;;;;-141.50;100.00;63355.56;4914819;29;20056;-77
2022/02/18 07:20:14;;;;;;;17.35;2.20;;;;;;;-141.50;100.00;63355.56;4912326;29;20052;-77
2022/02/18 07:22:42;;;;;;;13.20;2.08;;;;;;;-141.50;100.00;63355.56;4912340;29;20427;-78
2022/02/18 07:25:14;;;;;;;12.35;2.00;;;;;;;-141.50;100.00;63355.56;4915303;29;20056;-79
2022/02/18 07:27:42;;;;;;;13.77;2.17;;;;;;;-141.50;100.00;63355.56;4914633;29;20056;-77
2022/02/18 07:30:11;;;;;;;15.13;2.25;;;;;;;-141.50;100.00;63355.56;4912616;29;20382;-76
2022/02/18 07:32:39;;;;;;;16.65;2.03;;;;;;;-141.50;100.00;63355.56;4908856;29;21245;-78
2022/02/18 07:35:06;;;;;;;10.88;1.88;;;;;;;-141.50;100.00;63355.56;4915917;29;20445;-78
2022/02/18 07:37:34;;;;;;;20.00;2.85;;;;;;;-141.50;100.00;63355.56;4914119;29;20082;-77
2022/02/18 07:40:00;;;;;;;17.48;2.40;;;;;;;-141.50;100.00;63355.56;4912536;29;20088;-78
2022/02/18 07:42:27;;;;;;;15.05;2.33;;;;;;;-141.50;100.00;63355.56;4915057;29;20354;-77
2022/02/18 07:44:54;;;;;;;23.00;2.72;;;;;;;-141.50;100.00;63355.56;4914406;29;20063;-76
2022/02/18 07:47:20;;;;;;;14.25;2.33;;;;;;;-141.50;100.00;63355.56;4912239;29;20056;-76
2022/02/18 07:49:53;;;;;;;17.45;2.80;;;;;;;-141.50;100.00;63355.56;4913189;29;20100;-77
2022/02/18 07:52:22;;;;;;;20.58;2.78;;;;;;;-141.50;100.00;63355.56;4912563;29;20048;-76
2022/02/18 07:54:49;;;;;;;17.08;2.33;;;;;;;-141.50;100.00;63355.56;4913825;29;20070;-79
2022/02/18 07:57:16;;;;;;;17.77;2.75;;;;;;;-141.50;100.00;63355.56;4924180;29;20055;-76
2022/02/18 07:59:43;;;;;;;14.60;2.38;;;;;;;-141.50;100.00;63355.56;4931126;29;20052;-77
2022/02/18 08:02:09;;;;;;;14.82;3.08;;;;;;;-141.50;100.00;63355.56;4918487;29;20052;-75
2022/02/18 08:04:36;;;;;;;17.48;2.75;;;;;;;-141.50;100.00;63355.56;4913976;29;20192;-77
2022/02/18 08:07:10;;;;;;;19.27;2.85;;;;;;;-141.50;100.00;63355.56;4911676;29;20060;-77
2022/02/18 08:09:36;;;;;;;20.63;2.33;;;;;;;-141.50;100.00;63355.56;4913410;29;20496;-77
2022/02/18 08:12:04;;;;;;;23.85;2.63;;;;;;;-141.50;100.00;63355.56;4912025;29;20519;-76
2022/02/18 08:14:32;;;;;;;14.63;2.70;;;;;;;-141.50;100.00;63355.56;4912948;29;20401;-77
2022/02/18 08:16:59;;;;;;;26.08;3.08;;;;;;;-141.50;100.00;63355.56;4914421;29;20501;-75
2022/02/18 08:19:26;;;;;;;23.50;2.90;;;;;;;-141.50;100.00;63355.56;4911925;29;20402;-77
2022/02/18 08:21:53;;;;;;;22.25;3.17;;;;;;;-141.50;100.00;63355.56;4910049;29;20056;-77
2022/02/18 08:24:19;;;;;;;20.27;3.15;;;;;;;-141.50;100.00;63355.56;4912882;29;20072;-77
2022/02/18 08:26:51;;;;;;;24.25;3.35;;;;;;;-141.50;100.00;63355.56;4910832;29;20195;-77
2022/02/18 08:29:21;;;;;;;22.70;2.90;;;;;;;-141.50;100.00;63355.56;4911831;29;20437;-77
2022/02/18 08:31:49;;;;;;;24.42;4.25;;;;;;;-141.50;100.00;63355.56;4911461;29;20107;-78
2022/02/18 08:34:16;;;;;;;27.83;3.63;;;;;;;-141.50;100.00;63355.56;4913279;29;20060;-78
2022/02/18 08:36:44;;;;;;;31.98;3.55;;;;;;;-141.50;100.00;63355.56;4912259;29;20640;-77
2022/02/18 08:39:10;;;;;;;28.63;3.97;;;;;;;-141.50;100.00;63355.56;4911059;29;20286;-76
2022/02/18 08:41:38;;;;;;;18.95;3.45;;;;;;;-141.50;100.00;63355.56;4910977;29;20052;-77
2022/02/18 08:44:05;;;;;;;21.30;3.72;;;;;;;-141.50;100.00;63355.56;4913494;29;20056;-78
2022/02/18 08:46:32;;;;;;;23.88;2.83;;;;;;;-141.50;100.00;63355.56;4912354;29;20134;-77
2022/02/18 08:49:00;;;;;;;25.45;3.70;;;;;;;-141.50;100.00;63355.56;4914044;29;20059;-77
2022/02/18 08:51:27;;;;;;;27.30;3.95;;;;;;;-141.50;100.00;63355.56;4910362;29;20045;-78
2022/02/18 08:53:53;;;;;;;25.17;3.53;;;;;;;-141.50;100.00;63355.56;4911630;29;20063;-78
2022/02/18 08:56:24;;;;;;;17.65;2.83;;;;;;;-141.50;100.00;63355.56;4911454;29;20110;-78
2022/02/18 08:58:51;;;;;;;29.20;3.85;;;;;;;-141.50;100.00;63355.56;4914116;29;20171;-78
2022/02/18 09:01:18;;;;;;;20.95;3.53;;;;;;;-141.50;100.00;63355.56;4910824;29;20059;-79
2022/02/18 09:03:45;;;;;;;24.75;3.20;;;;;;;-141.50;100.00;63355.56;4918791;29;20221;-79
2022/02/18 09:06:12;;;;;;;24.13;3.42;;;;;;;-141.50;100.00;63355.56;4914165;29;20147;-78
2022/02/18 09:08:38;;;;;;;24.48;3.13;;;;;;;-141.50;100.00;63355.56;4915239;29;20535;-77
2022/02/18 09:11:05;;;;;;;20.27;3.30;;;;;;;-141.50;100.00;63355.56;4912825;29;20062;-78
2022/02/18 09:13:31;;;;;;;34.45;4.10;;;;;;;-141.50;100.00;63355.56;4916314;29;20056;-79
2022/02/18 09:15:58;;;;;;;24.83;3.45;;;;;;;-141.50;100.00;63355.56;4915172;29;20650;-78
2022/02/18 09:18:25;;;;;;;31.00;3.55;;;;;;;-141.50;100.00;63355.56;4915160;29;20049;-77
2022/02/18 09:20:51;;;;;;;20.83;3.70;;;;;;;-141.50;100.00;63355.56;4911343;29;20055;-78
2022/02/18 09:23:18;;;;;;;25.73;3.53;;;;;;;-141.50;100.00;63355.56;4911104;29;20048;-77
2022/02/18 09:25:45;;;;;;;19.77;3.60;;;;;;;-141.50;100.00;63355.56;4911746;29;20509;-78
2022/02/18 09:28:13;;;;;;;20.95;3.80;;;;;;;-141.50;100.00;63355.56;4914298;29;20056;-77
2022/02/18 09:30:43;;;;;;;32.13;3.78;;;;;;;-141.50;100.00;63355.56;4911525;29;20056;-78
2022/02/18 09:33:15;;;;;;;22.30;3.20;;;;;;;-141.50;100.00;63355.56;4912418;29;20052;-76
2022/02/18 09:35:43;;;;;;;28.35;3.60;;;;;;;-141.50;100.00;63355.56;4911557;29;20544;-77
2022/02/18 09:38:10;;;;;;;27.15;3.95;;;;;;;-141.50;100.00;63355.56;4910144;29;20052;-77
2022/02/18 09:40:38;;;;;;;25.48;4.10;;;;;;;-141.50;100.00;63355.56;4910031;29;20135;-78
2022/02/18 09:43:06;;;;;;;26.42;4.40;;;;;;;-141.50;100.00;63355.56;4911245;29;20056;-77
2022/02/18 09:45:33;;;;;;;22.83;3.55;;;;;;;-141.50;100.00;63355.56;4911126;29;20055;-77
2022/02/18 09:48:01;;;;;;;26.70;3.83;;;;;;;-141.50;100.00;63355.56;4910243;29;20524;-78
2022/02/18 09:50:29;;;;;;;24.90;3.55;;;;;;;-141.50;100.00;63355.56;4910570;29;20063;-76
2022/02/18 09:53:15;;;;;;;29.45;4.30;;;;;;;-141.50;100.00;63355.56;4908358;29;20276;-76
2022/02/18 09:55:44;;;;;;;25.10;4.30;;;;;;;-141.50;100.00;63355.56;4912930;29;20490;-79
2022/02/18 09:58:12;;;;;;;26.08;3.42;;;;;;;-141.50;100.00;63355.56;4919718;29;20107;-77
2022/02/18 10:00:39;;;;;;;26.27;3.58;;;;;;;-141.50;100.00;63355.56;4929893;29;20432;-77
2022/02/18 10:03:12;;;;;;;26.90;4.25;;;;;;;-141.50;100.00;63355.56;4930626;29;20087;-77
2022/02/18 10:05:38;;;;;;;18.92;3.97;;;;;;;-141.50;100.00;63355.56;4929070;29;20206;-76
2022/02/18 10:08:08;;;;;;;25.40;3.65;;;;;;;-141.50;100.00;63355.56;4928033;29;20055;-76
2022/02/18 10:10:37;;;;;;;19.63;2.92;;;;;;;-141.50;100.00;63355.56;4927404;29;20119;-77
2022/02/18 10:13:04;;;;;;;14.57;2.85;;;;;;;-141.50;100.00;63355.56;4920330;29;20454;-78
2022/02/18 10:15:45;;;;;;;30.20;3.80;;;;;;;-141.50;100.00;63355.56;4912286;29;20123;-77
2022/02/18 10:18:12;;;;;;;31.58;3.38;;;;;;;-141.50;100.00;63355.56;4911885;29;20062;-76
2022/02/18 10:20:42;;;;;;;20.40;2.72;;;;;;;-141.50;100.00;63355.56;4911288;29;20107;-78
2022/02/18 10:23:09;;;;;;;20.15;3.58;;;;;;;-141.50;100.00;63355.56;4911623;29;20055;-78
2022/02/18 10:25:43;;;;;;;24.10;3.40;;;;;;;-141.50;100.00;63355.56;4911200;29;20828;-79
2022/02/18 10:28:16;;;;;;;21.67;3.08;;;;;;;-141.50;100.00;63355.56;4911542;29;20124;-78
2022/02/18 10:30:44;;;;;;;23.30;3.25;;;;;;;-141.50;100.00;63355.56;4910203;29;20518;-79
2022/02/18 10:33:16;;;;;;;17.08;2.90;;;;;;;-141.50;100.00;63355.56;4912580;29;20059;-79
2022/02/18 10:35:45;;;;;;;18.17;2.63;;;;;;;-141.50;100.00;63355.56;4910769;29;20087;-77
2022/02/18 10:38:12;;;;;;;21.67;3.28;;;;;;;-141.50;100.00;63355.56;4927697;29;20064;-77
2022/02/18 10:40:43;;;;;;;20.50;2.85;;;;;;;-141.50;100.00;63355.56;4928525;29;20059;-79
2022/02/18 10:43:11;;;;;;;24.13;3.22;;;;;;;-141.50;100.00;63355.56;4916114;29;20290;-79
2022/02/18 10:46:02;;;;;;;22.88;3.17;;;;;;;-141.50;100.00;63355.56;4914658;29;20059;-77
2022/02/18 10:48:33;;;;;;;19.45;3.20;;;;;;;-141.50;100.00;63355.56;4913438;29;20147;-77
2022/02/18 10:51:11;;;;;;;22.67;3.20;;;;;;;-141.50;100.00;63355.56;4903647;29;20387;-78
2022/02/18 10:53:47;;;;;;;20.83;2.97;;;;;;;-141.50;100.00;63355.56;4910595;29;20086;-78
2022/02/18 10:56:17;;;;;;;23.48;2.58;;;;;;;-141.50;100.00;63355.56;4909403;29;20058;-78
2022/02/18 10:58:47;;;;;;;23.95;2.90;;;;;;;-141.50;100.00;63355.56;4903663;29;20228;-78
2022/02/18 11:01:22;;;;;;;24.85;3.00;;;;;;;-141.50;100.00;63355.56;4905003;29;20067;-75
2022/02/18 11:04:00;;;;;;;22.83;2.60;;;;;;;-141.50;100.00;63355.56;4909869;29;20052;-75
2022/02/18 11:06:33;;;;;;;24.40;3.55;;;;;;;-141.50;100.00;63355.56;4910352;29;20060;-76